createdAt,value
2023-04-15T00:01:08.099Z,75.33
2023-04-15T00:03:35.171Z,75.88
2023-04-15T00:06:02.411Z,75.74
2023-04-15T00:08:29.918Z,75.81
2023-04-15T00:10:56.550Z,75.58
2023-04-15T00:13:23.026Z,75.76
2023-04-15T00:15:49.510Z,76.16
2023-04-15T00:18:15.942Z,75.82
2023-04-15T00:20:42.447Z,76.55
2023-04-15T00:23:08.988Z,76.25
2023-04-15T00:25:35.589Z,76.09
2023-04-15T00:28:02.772Z,76.67
2023-04-15T00:30:29.372Z,76.68
2023-04-15T00:32:56.046Z,76.49
2023-04-15T00:35:23.917Z,76.91
2023-04-15T00:37:51.363Z,76.83
2023-04-15T00:40:20.072Z,76.92
2023-04-15T00:42:49.929Z,76.39
2023-04-15T00:45:16.373Z,76.66
2023-04-15T00:47:43.631Z,76.50
2023-04-15T00:50:12.527Z,76.40
2023-04-15T00:52:40.172Z,76.88
2023-04-15T00:55:07.578Z,76.70
2023-04-15T00:57:35.152Z,77.27
2023-04-15T01:00:02.536Z,77.12
2023-04-15T01:02:29.477Z,77.23
2023-04-15T01:04:56.744Z,77.31
2023-04-15T01:07:23.516Z,77.39
2023-04-15T01:09:50.115Z,77.67
2023-04-15T01:12:17.286Z,77.19
2023-04-15T01:14:43.771Z,77.65
2023-04-15T01:17:10.407Z,77.04
2023-04-15T01:19:38.168Z,77.25
2023-04-15T01:22:05.588Z,76.95
2023-04-15T01:24:34.088Z,77.54
2023-04-15T01:27:00.732Z,76.76
2023-04-15T01:29:27.927Z,76.87
2023-04-15T01:31:56.729Z,77.26
2023-04-15T01:34:23.550Z,77.03
2023-04-15T01:36:52.907Z,76.83
2023-04-15T01:39:19.436Z,77.25
2023-04-15T01:41:45.960Z,77.29
2023-04-15T01:44:12.457Z,77.59
2023-04-15T01:46:39.389Z,77.63
2023-04-15T01:49:06.233Z,77.44
2023-04-15T01:51:32.943Z,77.40
2023-04-15T01:53:59.389Z,77.40
2023-04-15T01:56:26.573Z,76.97
2023-04-15T01:58:53.377Z,77.13
2023-04-15T02:01:20.106Z,77.04
2023-04-15T02:03:48.049Z,77.81
2023-04-15T02:06:14.969Z,77.58
2023-04-15T02:08:41.612Z,77.92
2023-04-15T02:11:08.431Z,77.54
2023-04-15T02:13:34.957Z,77.53
2023-04-15T02:16:01.559Z,77.55
2023-04-15T02:18:28.064Z,77.96
2023-04-15T02:20:54.673Z,78.12
2023-04-15T02:23:21.171Z,77.68
2023-04-15T02:25:53.618Z,77.73
2023-04-15T02:28:21.367Z,77.44
2023-04-15T02:30:51.059Z,77.85
2023-04-15T02:33:18.086Z,77.67
2023-04-15T02:35:45.461Z,77.84
2023-04-15T02:38:12.211Z,78.09
2023-04-15T02:40:38.702Z,78.16
2023-04-15T02:43:07.178Z,78.03
2023-04-15T02:45:34.158Z,77.67
2023-04-15T02:48:06.088Z,77.55
2023-04-15T02:50:32.757Z,77.81
2023-04-15T02:53:01.185Z,77.92
2023-04-15T02:55:27.916Z,78.01
2023-04-15T02:57:59.758Z,77.52
2023-04-15T03:00:26.489Z,77.70
2023-04-15T03:03:07.209Z,77.99
2023-04-15T03:05:33.879Z,78.54
2023-04-15T03:08:03.535Z,78.17
2023-04-15T03:10:30.038Z,78.41
2023-04-15T03:12:56.497Z,77.92
2023-04-15T03:15:23.154Z,78.42
2023-04-15T03:17:49.896Z,78.00
2023-04-15T03:20:16.961Z,78.23
2023-04-15T03:22:43.652Z,78.36
2023-04-15T03:25:10.144Z,78.38
2023-04-15T03:27:37.804Z,77.88
2023-04-15T03:30:04.520Z,78.30
2023-04-15T03:32:31.792Z,78.36
2023-04-15T03:34:58.366Z,78.22
2023-04-15T03:37:24.840Z,77.75
2023-04-15T03:39:51.470Z,77.59
2023-04-15T03:42:17.931Z,77.57
2023-04-15T03:44:44.482Z,78.13
2023-04-15T03:47:10.950Z,77.77
2023-04-15T03:49:37.622Z,78.04
2023-04-15T03:52:04.418Z,78.16
2023-04-15T03:54:30.958Z,78.40
2023-04-15T03:57:00.763Z,77.58
2023-04-15T03:59:27.368Z,78.02
2023-04-15T04:01:53.902Z,77.86
2023-04-15T04:04:20.392Z,78.32
2023-04-15T04:06:46.918Z,78.11
2023-04-15T04:09:13.427Z,78.14
2023-04-15T04:11:39.865Z,78.23
2023-04-15T04:14:07.107Z,78.54
2023-04-15T04:16:33.607Z,77.97
2023-04-15T04:19:00.316Z,78.04
2023-04-15T04:21:27.151Z,77.78
2023-04-15T04:23:53.694Z,78.09
2023-04-15T04:26:20.236Z,78.26
2023-04-15T04:28:46.702Z,78.13
2023-04-15T04:31:13.408Z,78.42
2023-04-15T04:33:40.041Z,78.42
2023-04-15T04:36:06.788Z,78.62
2023-04-15T04:38:33.279Z,78.52
2023-04-15T04:41:00.369Z,78.20
2023-04-15T04:43:27.462Z,78.28
2023-04-15T04:45:53.983Z,78.65
2023-04-15T04:48:20.649Z,78.50
2023-04-15T04:50:47.261Z,78.64
2023-04-15T04:53:13.859Z,78.36
2023-04-15T04:55:40.529Z,78.51
2023-04-15T04:58:07.053Z,78.38
2023-04-15T05:00:33.706Z,78.42
2023-04-15T05:03:01.014Z,78.27
2023-04-15T05:05:27.607Z,78.58
2023-04-15T05:07:54.062Z,78.73
2023-04-15T05:10:21.066Z,78.60
2023-04-15T05:12:47.655Z,78.91
2023-04-15T05:15:14.142Z,78.40
2023-04-15T05:17:40.615Z,78.56
2023-04-15T05:20:07.944Z,78.94
2023-04-15T05:22:34.620Z,79.41
2023-04-15T05:25:01.110Z,79.55
2023-04-15T05:27:27.658Z,79.53
2023-04-15T05:29:54.098Z,79.22
2023-04-15T05:32:20.710Z,79.21
2023-04-15T05:34:47.241Z,78.80
2023-04-15T05:37:13.870Z,79.06
2023-04-15T05:39:40.414Z,78.95
2023-04-15T05:42:07.008Z,78.99
2023-04-15T05:44:33.430Z,79.15
2023-04-15T05:47:00.065Z,79.60
2023-04-15T05:49:27.559Z,79.27
2023-04-15T05:51:54.298Z,78.93
2023-04-15T05:54:22.539Z,78.87
2023-04-15T05:56:49.409Z,78.91
2023-04-15T05:59:16.067Z,79.36
2023-04-15T06:01:43.028Z,78.74
2023-04-15T06:04:09.810Z,79.31
2023-04-15T06:06:36.453Z,78.71
2023-04-15T06:09:03.183Z,79.17
2023-04-15T06:11:29.809Z,79.09
2023-04-15T06:13:56.613Z,79.20
2023-04-15T06:16:26.436Z,79.15
2023-04-15T06:18:52.938Z,79.14
2023-04-15T06:21:19.567Z,79.15
2023-04-15T06:23:46.306Z,79.26
2023-04-15T06:26:12.805Z,79.30
2023-04-15T06:28:39.237Z,79.14
2023-04-15T06:31:06.016Z,79.51
2023-04-15T06:33:32.487Z,79.01
2023-04-15T06:35:59.110Z,79.66
2023-04-15T06:38:25.885Z,79.65
2023-04-15T06:40:52.504Z,79.42
2023-04-15T06:43:19.740Z,79.16
2023-04-15T06:45:46.309Z,79.41
2023-04-15T06:48:13.082Z,79.15
2023-04-15T06:50:39.652Z,78.79
2023-04-15T06:53:06.625Z,79.10
2023-04-15T06:55:33.983Z,78.98
2023-04-15T06:58:01.202Z,79.03
2023-04-15T07:00:28.690Z,79.43
2023-04-15T07:02:55.856Z,79.12
2023-04-15T07:05:22.564Z,79.16
2023-04-15T07:07:48.995Z,79.15
2023-04-15T07:10:15.893Z,79.02
2023-04-15T07:12:42.525Z,79.59
2023-04-15T07:15:09.482Z,78.73
2023-04-15T07:17:36.070Z,79.74
2023-04-15T07:20:03.094Z,79.34
2023-04-15T07:22:29.624Z,79.25
2023-04-15T07:24:56.317Z,79.41
2023-04-15T07:27:22.993Z,79.29
2023-04-15T07:29:51.469Z,79.40
2023-04-15T07:32:18.224Z,79.67
2023-04-15T07:34:44.828Z,79.93
2023-04-15T07:37:11.349Z,79.65
2023-04-15T07:39:38.026Z,79.53
2023-04-15T07:42:04.697Z,79.98
2023-04-15T07:44:31.644Z,79.46
2023-04-15T07:46:58.073Z,79.65
2023-04-15T07:49:24.521Z,79.47
2023-04-15T07:51:51.467Z,79.68
2023-04-15T07:54:18.081Z,79.96
2023-04-15T07:56:44.538Z,79.91
2023-04-15T07:59:12.352Z,79.48
2023-04-15T08:01:38.960Z,79.78
2023-04-15T08:04:07.849Z,79.69
2023-04-15T08:06:34.729Z,79.96
2023-04-15T08:09:01.786Z,79.95
2023-04-15T08:11:28.613Z,79.50
2023-04-15T08:13:55.356Z,79.68
2023-04-15T08:16:27.920Z,79.52
2023-04-15T08:18:56.760Z,79.42
2023-04-15T08:21:24.620Z,79.58
2023-04-15T08:23:52.843Z,79.51
2023-04-15T08:26:20.988Z,79.54
2023-04-15T08:28:47.775Z,79.70
2023-04-15T08:31:15.586Z,79.86
2023-04-15T08:33:42.600Z,80.00
2023-04-15T08:36:09.421Z,79.82
2023-04-15T08:38:36.570Z,79.90
2023-04-15T08:41:11.810Z,80.41
2023-04-15T08:43:48.969Z,80.00
2023-04-15T08:46:16.688Z,80.64
2023-04-15T08:48:44.187Z,80.26
2023-04-15T08:51:10.949Z,80.53
2023-04-15T08:53:37.677Z,80.66
2023-04-15T08:56:07.516Z,80.28
2023-04-15T08:58:35.655Z,80.26
2023-04-15T09:01:02.482Z,80.27
2023-04-15T09:03:29.323Z,80.55
2023-04-15T09:05:57.314Z,80.39
2023-04-15T09:08:23.881Z,80.59
2023-04-15T09:10:50.506Z,80.63
2023-04-15T09:13:17.030Z,80.94
2023-04-15T09:15:43.993Z,80.72
2023-04-15T09:18:13.557Z,80.63
2023-04-15T09:20:44.193Z,80.63
2023-04-15T09:23:15.689Z,80.46
2023-04-15T09:25:42.626Z,81.04
2023-04-15T09:28:09.561Z,80.90
2023-04-15T09:30:36.768Z,80.48
2023-04-15T09:33:10.932Z,80.75
2023-04-15T09:35:37.599Z,80.93
2023-04-15T09:38:07.254Z,80.87
2023-04-15T09:40:37.544Z,80.81
2023-04-15T09:43:05.472Z,80.88
2023-04-15T09:45:33.425Z,80.86
2023-04-15T09:48:15.466Z,81.74
2023-04-15T09:50:43.922Z,81.01
2023-04-15T09:53:12.393Z,81.28
2023-04-15T09:55:38.792Z,81.17
2023-04-15T09:58:22.088Z,81.06
2023-04-15T10:00:50.386Z,80.93
2023-04-15T10:03:25.129Z,81.04
2023-04-15T10:05:57.141Z,81.01
2023-04-15T10:08:25.854Z,81.00
2023-04-15T10:10:53.182Z,81.25
2023-04-15T10:13:24.739Z,81.18
2023-04-15T10:16:00.807Z,81.18
2023-04-15T10:18:28.761Z,81.54
2023-04-15T10:20:55.997Z,81.80
2023-04-15T10:23:24.453Z,81.67
2023-04-15T10:25:56.810Z,81.50
2023-04-15T10:28:23.255Z,81.38
2023-04-15T10:30:50.046Z,81.49
2023-04-15T10:33:24.496Z,81.20
2023-04-15T10:35:52.761Z,81.39
2023-04-15T10:38:34.566Z,81.56
2023-04-15T10:41:21.011Z,81.53
2023-04-15T10:43:52.792Z,81.40
2023-04-15T10:46:23.984Z,81.42
2023-04-15T10:48:52.916Z,81.90
2023-04-15T10:51:30.509Z,81.92
2023-04-15T10:54:00.941Z,81.96
2023-04-15T10:56:31.375Z,81.96
2023-04-15T10:59:01.418Z,81.43
2023-04-15T11:01:50.699Z,81.66
2023-04-15T11:04:53.405Z,81.73
2023-04-15T11:07:35.967Z,82.02
2023-04-15T11:10:03.017Z,81.57
2023-04-15T11:12:36.376Z,81.99
2023-04-15T11:15:32.402Z,81.78
2023-04-15T11:18:24.558Z,81.97
2023-04-15T11:20:52.043Z,81.96
2023-04-15T11:23:20.014Z,81.84
2023-04-15T11:25:46.464Z,81.69
2023-04-15T11:28:13.774Z,81.58
2023-04-15T11:30:40.640Z,81.59
2023-04-15T11:33:09.859Z,82.08
2023-04-15T11:35:36.673Z,81.68
2023-04-15T11:38:10.057Z,81.94
2023-04-15T11:40:37.563Z,81.90
2023-04-15T11:43:09.392Z,81.41
2023-04-15T11:45:37.260Z,81.88
2023-04-15T11:48:12.107Z,81.89
2023-04-15T11:50:41.048Z,82.02
2023-04-15T11:53:10.557Z,81.70
2023-04-15T11:55:44.778Z,81.85
2023-04-15T11:58:23.275Z,82.13
2023-04-15T12:00:54.119Z,81.69
2023-04-15T12:03:27.343Z,82.06
2023-04-15T12:06:17.261Z,82.33
2023-04-15T12:08:56.030Z,82.22
2023-04-15T12:11:36.101Z,82.38
2023-04-15T12:14:06.739Z,82.15
2023-04-15T12:16:49.175Z,82.50
2023-04-15T12:19:39.063Z,82.41
2023-04-15T12:22:10.186Z,82.85
2023-04-15T12:24:37.622Z,82.22
2023-04-15T12:27:05.645Z,82.74
2023-04-15T12:29:34.267Z,82.55
2023-04-15T12:32:14.997Z,82.28
2023-04-15T12:34:43.579Z,82.81
2023-04-15T12:37:13.087Z,82.98
2023-04-15T12:39:42.024Z,82.60
2023-04-15T12:42:09.104Z,82.73
2023-04-15T12:44:36.649Z,82.55
2023-04-15T12:47:03.436Z,82.79
2023-04-15T12:49:32.510Z,83.06
2023-04-15T12:52:00.693Z,82.60
2023-04-15T12:54:27.834Z,82.59
2023-04-15T12:56:54.702Z,82.65
2023-04-15T12:59:21.663Z,82.73
2023-04-15T13:01:49.006Z,82.70
2023-04-15T13:04:16.614Z,82.63
2023-04-15T13:06:43.716Z,82.16
2023-04-15T13:09:10.258Z,82.21
2023-04-15T13:11:36.812Z,81.93
2023-04-15T13:14:06.165Z,82.41
2023-04-15T13:16:33.348Z,82.30
2023-04-15T13:19:00.977Z,81.89
2023-04-15T13:21:28.352Z,82.35
2023-04-15T13:23:55.615Z,82.12
2023-04-15T13:26:22.203Z,81.67
2023-04-15T13:28:48.581Z,81.77
2023-04-15T13:31:15.225Z,82.39
2023-04-15T13:33:41.656Z,81.97
2023-04-15T13:36:08.422Z,81.71
2023-04-15T13:38:35.170Z,81.25
2023-04-15T13:41:01.617Z,81.57
2023-04-15T13:43:28.509Z,81.47
2023-04-15T13:45:55.290Z,81.56
2023-04-15T13:48:21.863Z,81.55
2023-04-15T13:50:48.316Z,81.54
2023-04-15T13:53:16.955Z,81.74
2023-04-15T13:55:43.423Z,81.22
2023-04-15T13:58:10.268Z,81.35
2023-04-15T14:00:36.867Z,81.19
2023-04-15T14:03:04.025Z,82.03
2023-04-15T14:05:32.915Z,81.71
2023-04-15T14:08:01.413Z,81.65
2023-04-15T14:10:27.814Z,82.10
2023-04-15T14:12:54.291Z,81.86
2023-04-15T14:15:21.375Z,82.39
2023-04-15T14:17:47.878Z,82.03
2023-04-15T14:20:16.756Z,81.87
2023-04-15T14:22:43.714Z,82.24
2023-04-15T14:25:11.716Z,81.50
2023-04-15T14:27:43.895Z,81.75
2023-04-15T14:30:10.902Z,81.91
2023-04-15T14:32:37.410Z,81.66
2023-04-15T14:35:04.366Z,81.77
2023-04-15T14:37:31.022Z,81.86
2023-04-15T14:39:57.538Z,81.95
2023-04-15T14:42:24.024Z,81.73
2023-04-15T14:44:50.519Z,81.86
2023-04-15T14:47:17.146Z,81.90
2023-04-15T14:49:44.057Z,82.12
2023-04-15T14:52:10.530Z,82.14
2023-04-15T14:54:36.989Z,82.02
2023-04-15T14:57:09.073Z,82.24
2023-04-15T14:59:35.828Z,82.38
2023-04-15T15:02:02.364Z,82.27
2023-04-15T15:04:29.389Z,82.23
2023-04-15T15:06:56.143Z,82.22
2023-04-15T15:09:23.858Z,81.92
2023-04-15T15:11:50.834Z,82.21
2023-04-15T15:14:17.349Z,82.18
2023-04-15T15:16:44.022Z,82.29
2023-04-15T15:19:10.584Z,82.51
2023-04-15T15:21:37.455Z,82.30
2023-04-15T15:24:04.044Z,82.30
2023-04-15T15:26:30.461Z,82.26
2023-04-15T15:28:57.000Z,82.32
2023-04-15T15:31:23.708Z,82.09
2023-04-15T15:33:51.663Z,82.10
2023-04-15T15:36:18.130Z,82.12
2023-04-15T15:38:44.600Z,81.92
2023-04-15T15:41:11.895Z,81.91
2023-04-15T15:43:38.286Z,82.37
2023-04-15T15:46:04.743Z,81.89
2023-04-15T15:48:31.228Z,82.09
2023-04-15T15:50:57.758Z,82.37
2023-04-15T15:53:25.874Z,82.09
2023-04-15T15:55:53.846Z,82.17
2023-04-15T15:58:21.200Z,82.19
2023-04-15T16:00:47.836Z,81.95
2023-04-15T16:03:15.443Z,82.24
2023-04-15T16:05:42.223Z,82.21
2023-04-15T16:08:08.711Z,82.76
2023-04-15T16:10:35.298Z,82.55
2023-04-15T16:13:02.395Z,82.35
2023-04-15T16:15:28.991Z,82.56
2023-04-15T16:17:55.605Z,82.27
2023-04-15T16:20:22.082Z,82.10
2023-04-15T16:22:48.778Z,82.27
2023-04-15T16:25:15.370Z,82.54
2023-04-15T16:27:54.582Z,82.16
2023-04-15T16:30:25.983Z,82.32
2023-04-15T16:32:52.703Z,82.18
2023-04-15T16:35:19.926Z,82.36
2023-04-15T16:37:46.509Z,82.29
2023-04-15T16:40:13.101Z,82.59
2023-04-15T16:42:41.251Z,82.41
2023-04-15T16:45:07.912Z,82.30
2023-04-15T16:47:34.502Z,82.38
2023-04-15T16:50:01.022Z,82.66
2023-04-15T16:52:28.948Z,82.57
2023-04-15T16:54:55.871Z,82.44
2023-04-15T16:57:22.297Z,82.41
2023-04-15T16:59:51.546Z,82.34
2023-04-15T17:02:18.164Z,82.25
2023-04-15T17:04:44.812Z,82.57
2023-04-15T17:07:11.433Z,82.37
2023-04-15T17:09:41.124Z,82.40
2023-04-15T17:12:07.882Z,82.48
2023-04-15T17:14:35.114Z,82.69
2023-04-15T17:17:01.732Z,82.49
2023-04-15T17:19:28.357Z,82.75
2023-04-15T17:21:55.146Z,82.87
2023-04-15T17:24:21.913Z,82.91
2023-04-15T17:26:48.632Z,83.11
2023-04-15T17:29:15.173Z,82.94
2023-04-15T17:31:42.064Z,82.85
2023-04-15T17:34:10.255Z,82.93
2023-04-15T17:36:37.954Z,82.89
2023-04-15T17:39:04.727Z,82.85
2023-04-15T17:41:31.341Z,82.73
2023-04-15T17:43:57.814Z,82.83
2023-04-15T17:46:24.330Z,82.92
2023-04-15T17:48:50.889Z,83.34
2023-04-15T17:51:17.328Z,83.90
2023-04-15T17:53:45.738Z,83.60
2023-04-15T17:56:12.189Z,83.76
2023-04-15T17:58:39.186Z,83.86
2023-04-15T18:01:06.306Z,83.96
2023-04-15T18:03:33.028Z,83.95
2023-04-15T18:06:01.309Z,84.02
2023-04-15T18:08:28.908Z,83.85
2023-04-15T18:10:55.528Z,83.90
2023-04-15T18:13:22.067Z,83.79
2023-04-15T18:15:49.445Z,83.59
2023-04-15T18:18:16.017Z,83.77
2023-04-15T18:20:42.485Z,84.09
2023-04-15T18:23:08.932Z,83.44
2023-04-15T18:25:38.085Z,83.76
2023-04-15T18:28:05.358Z,83.94
2023-04-15T18:30:31.825Z,83.86
2023-04-15T18:32:58.262Z,83.83
2023-04-15T18:35:24.784Z,84.05
2023-04-15T18:37:52.558Z,83.72
2023-04-15T18:40:19.075Z,83.67
2023-04-15T18:42:45.651Z,83.90
2023-04-15T18:45:12.044Z,84.07
2023-04-15T18:47:38.588Z,83.98
2023-04-15T18:50:05.625Z,83.86
2023-04-15T18:52:33.780Z,83.77
2023-04-15T18:55:00.766Z,83.91
2023-04-15T18:57:32.272Z,83.87
2023-04-15T19:00:01.926Z,84.04
2023-04-15T19:02:28.565Z,83.93
2023-04-15T19:04:55.200Z,83.86
2023-04-15T19:07:23.080Z,84.46
2023-04-15T19:09:53.082Z,84.00
2023-04-15T19:12:19.663Z,84.00
2023-04-15T19:14:46.103Z,83.90
2023-04-15T19:17:12.537Z,83.82
2023-04-15T19:19:38.993Z,83.83
2023-04-15T19:22:06.135Z,83.89
2023-04-15T19:24:33.292Z,84.06
2023-04-15T19:26:59.959Z,84.21
2023-04-15T19:29:28.472Z,84.22
2023-04-15T19:31:55.029Z,84.19
2023-04-15T19:34:21.944Z,84.51
2023-04-15T19:36:48.601Z,84.36
2023-04-15T19:39:15.508Z,84.31
2023-04-15T19:41:43.917Z,84.51
2023-04-15T19:44:12.763Z,84.28
2023-04-15T19:46:40.419Z,84.66
2023-04-15T19:49:07.123Z,84.67
2023-04-15T19:51:33.749Z,84.87
2023-04-15T19:54:00.327Z,84.53
2023-04-15T19:56:26.754Z,84.54
2023-04-15T19:58:54.904Z,84.55
2023-04-15T20:01:22.144Z,84.79
2023-04-15T20:03:48.853Z,84.36
2023-04-15T20:06:15.855Z,84.92
2023-04-15T20:08:42.378Z,84.69
2023-04-15T20:11:12.261Z,84.66
2023-04-15T20:13:41.640Z,84.97
2023-04-15T20:16:08.239Z,84.35
2023-04-15T20:18:34.915Z,84.63
2023-04-15T20:21:01.516Z,84.53
2023-04-15T20:23:28.051Z,84.71
2023-04-15T20:25:54.687Z,84.78
2023-04-15T20:28:23.319Z,84.82
2023-04-15T20:30:49.759Z,84.64
2023-04-15T20:33:16.333Z,84.75
2023-04-15T20:35:42.845Z,84.60
2023-04-15T20:38:09.367Z,84.59
2023-04-15T20:40:36.384Z,84.64
2023-04-15T20:43:02.819Z,84.94
2023-04-15T20:45:29.261Z,85.10
2023-04-15T20:47:56.084Z,84.76
2023-04-15T20:50:22.605Z,84.89
2023-04-15T20:52:49.033Z,85.14
2023-04-15T20:55:15.705Z,85.10
2023-04-15T20:57:42.158Z,85.16
2023-04-15T21:00:11.870Z,84.91
2023-04-15T21:02:38.657Z,85.19
2023-04-15T21:05:06.070Z,85.05
2023-04-15T21:07:32.698Z,85.66
2023-04-15T21:09:59.303Z,85.22
2023-04-15T21:12:25.745Z,85.21
2023-04-15T21:14:52.384Z,85.22
2023-04-15T21:17:18.850Z,85.00
2023-04-15T21:19:45.315Z,85.06
2023-04-15T21:22:11.894Z,84.77
2023-04-15T21:24:38.398Z,84.34
2023-04-15T21:27:04.836Z,84.86
2023-04-15T21:29:31.321Z,85.11
2023-04-15T21:31:57.900Z,84.70
2023-04-15T21:34:24.396Z,84.89
2023-04-15T21:36:50.828Z,84.67
2023-04-15T21:39:17.266Z,84.96
2023-04-15T21:41:43.768Z,84.58
2023-04-15T21:44:11.139Z,84.42
2023-04-15T21:46:38.619Z,84.43
2023-04-15T21:49:06.977Z,84.48
2023-04-15T21:51:33.767Z,84.41
2023-04-15T21:54:00.281Z,84.59
2023-04-15T21:56:26.757Z,84.57
2023-04-15T21:58:56.828Z,84.56
2023-04-15T22:01:24.226Z,84.60
2023-04-15T22:03:51.223Z,84.60
2023-04-15T22:06:18.297Z,84.61
2023-04-15T22:08:56.190Z,84.71
2023-04-15T22:11:27.447Z,84.61
2023-04-15T22:13:54.647Z,84.46
2023-04-15T22:16:21.169Z,84.71
2023-04-15T22:18:47.666Z,84.41
2023-04-15T22:21:14.391Z,84.32
2023-04-15T22:23:41.090Z,84.47
2023-04-15T22:26:07.560Z,84.59
2023-04-15T22:28:33.995Z,84.46
2023-04-15T22:31:00.625Z,84.67
2023-04-15T22:33:27.232Z,84.47
2023-04-15T22:35:53.713Z,84.71
2023-04-15T22:38:20.213Z,84.56
2023-04-15T22:40:46.626Z,84.67
2023-04-15T22:43:13.036Z,84.66
2023-04-15T22:45:39.561Z,84.67
2023-04-15T22:48:06.224Z,84.81
2023-04-15T22:50:32.941Z,84.90
2023-04-15T22:52:59.375Z,84.66
2023-04-15T22:55:25.953Z,84.74
2023-04-15T22:57:52.686Z,84.77
2023-04-15T23:00:19.292Z,84.81
2023-04-15T23:02:46.085Z,84.70
2023-04-15T23:05:13.481Z,84.96
2023-04-15T23:07:40.306Z,84.64
2023-04-15T23:10:07.994Z,84.46
2023-04-15T23:12:34.724Z,84.54
2023-04-15T23:15:01.186Z,84.45
2023-04-15T23:17:27.698Z,84.43
2023-04-15T23:19:54.102Z,84.59
2023-04-15T23:22:20.716Z,84.61
2023-04-15T23:24:47.179Z,84.50
2023-04-15T23:27:13.576Z,84.50
2023-04-15T23:29:39.981Z,84.36
2023-04-15T23:32:06.697Z,84.64
2023-04-15T23:34:33.163Z,84.61
2023-04-15T23:36:59.585Z,84.75
2023-04-15T23:39:26.442Z,84.65
2023-04-15T23:41:53.280Z,84.75
2023-04-15T23:44:20.313Z,84.74
2023-04-15T23:46:46.962Z,84.65
2023-04-15T23:49:13.541Z,84.69
2023-04-15T23:51:40.215Z,84.64
2023-04-15T23:54:06.692Z,84.97
2023-04-15T23:56:33.149Z,84.70
2023-04-15T23:58:59.573Z,85.00
